Time;durP1;ratioP1;P1;durP2;ratioP2;P2;SDS_P1;SDS_P2;PMS_P1;PMS_P2;Temp;Humidity;BMP_temperature;BMP_pressure;BME280_temperature;BME280_humidity;BME280_pressure;Samples;Min_cycle;Max_cycle;Signal;HPM_P1;HPM_P2
2023/07/24 00:01:43;;;;;;;5.17;4.67;;;;;;;;;;5079293;28;20483;-63
2023/07/24 00:04:09;;;;;;;6.03;5.37;;;;;;;;;;5078900;28;20451;-63
2023/07/24 00:06:36;;;;;;;6.33;5.70;;;;;;;;;;5078782;28;20972;-65
2023/07/24 00:09:02;;;;;;;5.50;5.10;;;;;;;;;;5078954;28;20510;-62
2023/07/24 00:11:29;;;;;;;9.10;5.67;;;;;;;;;;5079045;28;20479;-63
2023/07/24 00:13:56;;;;;;;5.43;4.97;;;;;;;;;;5079008;28;20984;-63
2023/07/24 00:16:23;;;;;;;6.93;4.90;;;;;;;;;;5079272;28;20524;-63
2023/07/24 00:18:49;;;;;;;6.40;5.00;;;;;;;;;;5078808;28;20474;-63
2023/07/24 00:21:16;;;;;;;7.73;5.23;;;;;;;;;;5079248;28;20921;-64
2023/07/24 00:23:42;;;;;;;5.37;4.90;;;;;;;;;;5079160;28;20563;-63
2023/07/24 00:26:08;;;;;;;5.53;5.00;;;;;;;;;;5079144;28;20870;-63
2023/07/24 00:28:35;;;;;;;4.50;4.20;;;;;;;;;;5079600;28;20467;-63
2023/07/24 00:31:03;;;;;;;4.90;4.50;;;;;;;;;;5078847;28;20486;-63
2023/07/24 00:33:29;;;;;;;5.53;4.67;;;;;;;;;;5079205;28;20444;-63
2023/07/24 00:35:56;;;;;;;5.40;4.90;;;;;;;;;;5077913;28;20529;-63
2023/07/24 00:38:22;;;;;;;5.33;4.83;;;;;;;;;;5079117;28;20531;-63
2023/07/24 00:40:49;;;;;;;5.23;4.77;;;;;;;;;;5079172;28;20519;-63
2023/07/24 00:43:16;;;;;;;5.20;4.80;;;;;;;;;;5078978;28;21149;-64
2023/07/24 00:45:43;;;;;;;5.03;4.50;;;;;;;;;;5079067;28;20475;-63
2023/07/24 00:48:11;;;;;;;5.33;4.70;;;;;;;;;;5079034;28;21136;-63
2023/07/24 00:50:38;;;;;;;5.67;5.07;;;;;;;;;;5077972;28;20547;-63
2023/07/24 00:53:05;;;;;;;7.23;5.40;;;;;;;;;;5075808;28;20475;-63
2023/07/24 00:55:31;;;;;;;4.80;4.30;;;;;;;;;;5072797;28;20475;-63
2023/07/24 00:57:58;;;;;;;4.90;4.50;;;;;;;;;;5073809;28;20526;-64
2023/07/24 01:00:25;;;;;;;5.63;5.10;;;;;;;;;;5078854;28;20447;-63
2023/07/24 01:02:52;;;;;;;7.90;4.90;;;;;;;;;;5078885;28;20494;-63
2023/07/24 01:05:20;;;;;;;6.10;5.50;;;;;;;;;;5077538;28;21024;-63
2023/07/24 01:07:47;;;;;;;5.20;4.63;;;;;;;;;;5078737;28;20483;-63
2023/07/24 01:10:13;;;;;;;7.10;4.40;;;;;;;;;;5078554;28;20491;-63
2023/07/24 01:12:43;;;;;;;4.40;4.00;;;;;;;;;;5078668;28;21003;-63
2023/07/24 01:15:12;;;;;;;6.23;5.20;;;;;;;;;;5078408;28;20479;-63
2023/07/24 01:17:40;;;;;;;4.43;4.07;;;;;;;;;;5078525;28;20491;-63
2023/07/24 01:20:09;;;;;;;5.20;4.80;;;;;;;;;;5079653;28;20539;-63
2023/07/24 01:22:39;;;;;;;5.37;4.50;;;;;;;;;;5082294;28;20511;-63
2023/07/24 01:25:10;;;;;;;5.90;4.60;;;;;;;;;;5082371;28;20522;-63
2023/07/24 01:27:41;;;;;;;7.40;5.17;;;;;;;;;;5082418;28;20448;-62
2023/07/24 01:30:08;;;;;;;6.13;5.47;;;;;;;;;;5081735;28;20490;-63
2023/07/24 01:32:34;;;;;;;6.97;5.43;;;;;;;;;;5082253;28;20718;-63
2023/07/24 01:35:01;;;;;;;9.30;5.30;;;;;;;;;;5081109;28;20514;-63
2023/07/24 01:37:28;;;;;;;7.60;5.60;;;;;;;;;;5081550;28;21016;-63
2023/07/24 01:39:56;;;;;;;6.73;5.57;;;;;;;;;;5081415;28;20490;-63
2023/07/24 01:42:23;;;;;;;8.20;5.37;;;;;;;;;;5082112;28;20463;-63
2023/07/24 01:44:53;;;;;;;6.70;6.00;;;;;;;;;;5081981;28;20448;-63
2023/07/24 01:47:19;;;;;;;6.63;6.00;;;;;;;;;;5081934;28;20452;-63
2023/07/24 01:49:46;;;;;;;7.03;6.33;;;;;;;;;;5081319;28;20450;-63
2023/07/24 01:52:12;;;;;;;6.77;5.40;;;;;;;;;;5081765;28;20483;-62
2023/07/24 01:54:38;;;;;;;6.20;5.60;;;;;;;;;;5081675;28;20475;-63
2023/07/24 01:57:05;;;;;;;6.33;5.30;;;;;;;;;;5081706;28;20468;-63
2023/07/24 01:59:32;;;;;;;6.20;5.60;;;;;;;;;;5081662;28;20452;-63
2023/07/24 02:01:59;;;;;;;6.23;5.63;;;;;;;;;;5081698;28;20506;-63
2023/07/24 02:04:26;;;;;;;6.50;5.90;;;;;;;;;;5080968;28;20452;-63
2023/07/24 02:06:52;;;;;;;5.97;5.40;;;;;;;;;;5080855;28;20475;-63
2023/07/24 02:09:19;;;;;;;6.80;5.77;;;;;;;;;;5081435;28;20488;-63
2023/07/24 02:11:45;;;;;;;8.13;6.67;;;;;;;;;;5070500;28;20483;-63
2023/07/24 02:14:13;;;;;;;7.97;6.13;;;;;;;;;;5081154;28;20531;-63
2023/07/24 02:16:39;;;;;;;10.23;6.30;;;;;;;;;;5081237;28;20543;-62
2023/07/24 02:19:07;;;;;;;6.43;5.83;;;;;;;;;;5080627;28;20534;-63
2023/07/24 02:21:33;;;;;;;5.70;5.20;;;;;;;;;;5081427;28;20960;-63
2023/07/24 02:24:00;;;;;;;7.33;5.10;;;;;;;;;;5080898;28;20448;-63
2023/07/24 02:26:26;;;;;;;6.37;5.57;;;;;;;;;;5081432;28;20515;-63
2023/07/24 02:28:53;;;;;;;6.57;5.87;;;;;;;;;;5080774;28;21060;-62
2023/07/24 02:31:20;;;;;;;6.27;5.17;;;;;;;;;;5080322;28;20815;-63
2023/07/24 02:33:46;;;;;;;7.33;5.37;;;;;;;;;;5081077;28;20524;-63
2023/07/24 02:36:15;;;;;;;6.50;5.63;;;;;;;;;;5080247;28;20464;-63
2023/07/24 02:38:41;;;;;;;5.93;5.10;;;;;;;;;;5080952;28;20547;-63
2023/07/24 02:41:08;;;;;;;6.07;5.53;;;;;;;;;;5080625;28;20456;-63
2023/07/24 02:43:34;;;;;;;6.00;5.40;;;;;;;;;;5080412;28;20556;-63
2023/07/24 02:46:01;;;;;;;4.97;4.57;;;;;;;;;;5080397;28;20518;-63
2023/07/24 02:48:28;;;;;;;6.20;5.60;;;;;;;;;;5081011;28;20447;-63
2023/07/24 02:50:56;;;;;;;6.57;5.97;;;;;;;;;;5080220;28;20482;-63
2023/07/24 02:53:23;;;;;;;9.03;5.27;;;;;;;;;;5080483;28;20467;-63
2023/07/24 02:55:50;;;;;;;6.90;5.60;;;;;;;;;;5080195;28;20459;-63
2023/07/24 02:58:16;;;;;;;6.17;5.57;;;;;;;;;;5079920;28;20471;-62
2023/07/24 03:00:42;;;;;;;7.43;5.73;;;;;;;;;;5079941;28;20487;-63
2023/07/24 03:03:09;;;;;;;11.07;5.70;;;;;;;;;;5080439;28;20454;-63
2023/07/24 03:05:35;;;;;;;9.50;6.53;;;;;;;;;;5078747;28;20476;-63
2023/07/24 03:08:02;;;;;;;8.77;5.77;;;;;;;;;;5080207;28;20452;-63
2023/07/24 03:10:29;;;;;;;6.50;5.60;;;;;;;;;;5079903;28;20471;-63
2023/07/24 03:12:56;;;;;;;6.57;5.97;;;;;;;;;;5080105;28;20452;-63
2023/07/24 03:15:22;;;;;;;8.60;6.33;;;;;;;;;;5079927;28;20519;-62
2023/07/24 03:17:48;;;;;;;6.90;6.20;;;;;;;;;;5079927;28;20482;-62
2023/07/24 03:20:16;;;;;;;5.67;5.00;;;;;;;;;;5079354;28;20530;-63
2023/07/24 03:22:42;;;;;;;6.53;5.90;;;;;;;;;;5080273;28;20452;-63
2023/07/24 03:25:09;;;;;;;7.00;5.30;;;;;;;;;;5080098;28;20479;-63
2023/07/24 03:27:37;;;;;;;7.33;6.27;;;;;;;;;;5080233;28;20475;-63
2023/07/24 03:30:03;;;;;;;5.70;5.20;;;;;;;;;;5079734;28;20479;-63
2023/07/24 03:32:30;;;;;;;5.37;4.63;;;;;;;;;;5080210;28;20467;-63
2023/07/24 03:34:56;;;;;;;5.77;4.73;;;;;;;;;;5079501;28;20499;-63
2023/07/24 03:37:23;;;;;;;6.00;4.70;;;;;;;;;;5079152;28;20549;-63
2023/07/24 03:39:49;;;;;;;6.67;5.00;;;;;;;;;;5079156;28;20472;-63
2023/07/24 03:42:25;;;;;;;6.50;3.97;;;;;;;;;;5079459;28;20524;-62
2023/07/24 03:44:53;;;;;;;5.57;4.80;;;;;;;;;;5066719;28;21039;-63
2023/07/24 03:47:19;;;;;;;5.00;3.90;;;;;;;;;;5079695;28;20479;-63
2023/07/24 03:49:45;;;;;;;4.33;3.93;;;;;;;;;;5078955;28;21230;-63
2023/07/24 03:52:12;;;;;;;4.00;3.60;;;;;;;;;;5079101;28;20477;-63
2023/07/24 03:54:38;;;;;;;6.23;4.60;;;;;;;;;;5079248;28;20508;-63
2023/07/24 03:57:05;;;;;;;4.77;3.40;;;;;;;;;;5079429;28;20443;-62
2023/07/24 03:59:32;;;;;;;7.10;3.87;;;;;;;;;;5079681;28;20484;-63
2023/07/24 04:01:59;;;;;;;4.63;3.27;;;;;;;;;;5079083;28;21181;-63
2023/07/24 04:04:26;;;;;;;4.37;3.60;;;;;;;;;;5078636;28;20456;-63
2023/07/24 04:06:52;;;;;;;3.73;3.43;;;;;;;;;;5076168;28;20547;-63
2023/07/24 04:09:19;;;;;;;6.87;3.10;;;;;;;;;;5079464;28;20483;-63
2023/07/24 04:11:45;;;;;;;6.00;3.20;;;;;;;;;;5079040;28;21019;-62
2023/07/24 04:14:11;;;;;;;4.73;3.10;;;;;;;;;;5079374;28;20478;-62
2023/07/24 04:16:38;;;;;;;9.23;3.80;;;;;;;;;;5079414;28;20473;-62
2023/07/24 04:19:06;;;;;;;4.50;3.00;;;;;;;;;;5078988;28;20483;-63
2023/07/24 04:21:32;;;;;;;3.90;3.23;;;;;;;;;;5078951;28;20455;-63
2023/07/24 04:23:58;;;;;;;2.93;2.60;;;;;;;;;;5079551;28;20494;-63
2023/07/24 04:26:25;;;;;;;3.50;3.10;;;;;;;;;;5079528;28;20472;-63
2023/07/24 04:28:51;;;;;;;3.50;3.13;;;;;;;;;;5079332;28;20958;-63
2023/07/24 04:31:18;;;;;;;3.13;2.63;;;;;;;;;;5079059;28;20888;-63
2023/07/24 04:33:44;;;;;;;3.30;3.00;;;;;;;;;;5079239;28;20471;-63
2023/07/24 04:36:12;;;;;;;3.57;3.27;;;;;;;;;;5077880;28;20543;-63
2023/07/24 04:38:38;;;;;;;5.60;2.97;;;;;;;;;;5078726;28;20522;-63
2023/07/24 04:41:04;;;;;;;3.70;3.17;;;;;;;;;;5078937;28;20452;-63
2023/07/24 04:43:31;;;;;;;3.70;3.40;;;;;;;;;;5078954;28;21013;-63
2023/07/24 04:45:57;;;;;;;3.53;3.23;;;;;;;;;;5079187;28;20511;-63
2023/07/24 04:48:23;;;;;;;4.13;3.70;;;;;;;;;;5079110;28;20480;-63
2023/07/24 04:50:53;;;;;;;3.50;3.20;;;;;;;;;;5078147;28;20465;-63
2023/07/24 04:53:21;;;;;;;3.30;3.00;;;;;;;;;;5079142;28;20491;-63
2023/07/24 04:55:48;;;;;;;4.60;4.20;;;;;;;;;;5081641;28;20479;-63
2023/07/24 04:58:14;;;;;;;5.63;3.87;;;;;;;;;;5082349;28;20503;-63
2023/07/24 05:00:40;;;;;;;4.03;3.70;;;;;;;;;;5082647;28;20487;-63
2023/07/24 05:03:10;;;;;;;3.90;3.50;;;;;;;;;;5083014;28;20459;-63
2023/07/24 05:05:37;;;;;;;5.90;3.97;;;;;;;;;;5081270;28;20470;-63
2023/07/24 05:08:03;;;;;;;4.40;3.97;;;;;;;;;;5082513;28;20511;-63
2023/07/24 05:10:35;;;;;;;5.00;3.80;;;;;;;;;;5082080;28;20896;-63
2023/07/24 05:13:01;;;;;;;5.70;3.60;;;;;;;;;;5082648;28;20523;-63
2023/07/24 05:15:27;;;;;;;4.70;3.90;;;;;;;;;;5082411;28;20443;-62
2023/07/24 05:17:54;;;;;;;6.60;4.63;;;;;;;;;;5082782;28;20480;-63
2023/07/24 05:20:20;;;;;;;5.77;4.70;;;;;;;;;;5081679;28;21031;-63
2023/07/24 05:22:47;;;;;;;7.07;4.17;;;;;;;;;;5082451;28;20519;-63
2023/07/24 05:25:13;;;;;;;5.20;3.93;;;;;;;;;;5082380;28;20487;-62
2023/07/24 05:27:41;;;;;;;10.03;5.60;;;;;;;;;;5082466;28;20475;-63
2023/07/24 05:30:08;;;;;;;9.27;5.20;;;;;;;;;;5082098;28;20487;-63
2023/07/24 05:32:34;;;;;;;9.67;5.37;;;;;;;;;;5081723;28;20455;-63
2023/07/24 05:35:00;;;;;;;5.93;5.13;;;;;;;;;;5081268;28;20456;-63
2023/07/24 05:37:27;;;;;;;6.70;5.60;;;;;;;;;;5081635;28;21049;-63
2023/07/24 05:39:53;;;;;;;7.03;4.70;;;;;;;;;;5081784;28;20551;-63
2023/07/24 05:42:19;;;;;;;5.83;4.73;;;;;;;;;;5081956;28;20447;-63
2023/07/24 05:44:47;;;;;;;9.50;5.80;;;;;;;;;;5081977;28;20455;-63
2023/07/24 05:47:14;;;;;;;6.53;5.13;;;;;;;;;;5081824;28;20444;-63
2023/07/24 05:49:40;;;;;;;8.87;5.30;;;;;;;;;;5081272;28;20497;-63
2023/07/24 05:52:07;;;;;;;6.63;5.57;;;;;;;;;;5081751;28;20898;-64
2023/07/24 05:54:33;;;;;;;7.60;6.10;;;;;;;;;;5079526;28;20480;-63
2023/07/24 05:56:59;;;;;;;7.20;5.47;;;;;;;;;;5081365;28;20486;-63
2023/07/24 05:59:26;;;;;;;6.57;5.60;;;;;;;;;;5081458;28;20970;-63
2023/07/24 06:01:54;;;;;;;6.57;5.43;;;;;;;;;;5081662;28;20520;-64
2023/07/24 06:04:20;;;;;;;9.90;6.30;;;;;;;;;;5080935;28;20487;-64
2023/07/24 06:06:46;;;;;;;8.47;5.90;;;;;;;;;;5079632;28;20472;-64
2023/07/24 06:09:13;;;;;;;7.37;5.70;;;;;;;;;;5081421;28;20471;-63
2023/07/24 06:11:39;;;;;;;7.00;5.90;;;;;;;;;;5081070;28;20462;-63
2023/07/24 06:14:05;;;;;;;10.70;6.00;;;;;;;;;;5081148;28;21075;-63
2023/07/24 06:16:32;;;;;;;8.80;7.20;;;;;;;;;;5081102;28;20630;-63
2023/07/24 06:19:00;;;;;;;9.30;7.10;;;;;;;;;;5081339;28;20517;-63
2023/07/24 06:21:26;;;;;;;8.17;6.63;;;;;;;;;;5080819;28;20472;-63
2023/07/24 06:23:52;;;;;;;8.23;6.40;;;;;;;;;;5081184;28;20547;-63
2023/07/24 06:26:19;;;;;;;8.43;6.67;;;;;;;;;;5080900;28;20547;-63
2023/07/24 06:28:45;;;;;;;10.87;6.60;;;;;;;;;;5074983;28;20455;-63
2023/07/24 06:31:11;;;;;;;10.00;6.90;;;;;;;;;;5079462;28;20475;-63
2023/07/24 06:33:38;;;;;;;8.67;6.17;;;;;;;;;;5078786;28;20999;-63
2023/07/24 06:36:09;;;;;;;8.47;6.73;;;;;;;;;;5079395;28;20464;-63
2023/07/24 06:38:35;;;;;;;10.00;7.00;;;;;;;;;;5079727;28;20555;-64
2023/07/24 06:41:02;;;;;;;7.10;6.40;;;;;;;;;;5079369;28;20459;-63
2023/07/24 06:43:29;;;;;;;8.20;7.30;;;;;;;;;;5080210;28;21029;-63
2023/07/24 06:45:55;;;;;;;8.33;7.33;;;;;;;;;;5080101;28;20487;-63
2023/07/24 06:48:22;;;;;;;9.30;8.17;;;;;;;;;;5078996;28;20440;-64
2023/07/24 06:50:49;;;;;;;7.80;6.30;;;;;;;;;;5079723;28;20456;-63
2023/07/24 06:53:16;;;;;;;7.83;6.77;;;;;;;;;;5080032;28;20527;-63
2023/07/24 06:55:43;;;;;;;6.77;6.07;;;;;;;;;;5079251;28;20539;-63
2023/07/24 06:58:09;;;;;;;8.90;6.90;;;;;;;;;;5071363;28;20444;-64
2023/07/24 07:00:36;;;;;;;8.93;8.03;;;;;;;;;;5079759;28;20514;-63
2023/07/24 07:03:02;;;;;;;9.97;8.90;;;;;;;;;;5079394;28;20440;-63
2023/07/24 07:05:28;;;;;;;9.53;8.63;;;;;;;;;;5078557;28;20460;-63
2023/07/24 07:07:55;;;;;;;13.00;8.80;;;;;;;;;;5079858;28;20467;-63
2023/07/24 07:10:23;;;;;;;10.07;8.63;;;;;;;;;;5079118;28;20479;-63
2023/07/24 07:12:49;;;;;;;9.47;8.53;;;;;;;;;;5079336;28;20482;-63
2023/07/24 07:15:15;;;;;;;10.33;9.20;;;;;;;;;;5079899;28;20475;-63
2023/07/24 07:17:42;;;;;;;12.13;10.07;;;;;;;;;;5078710;28;20471;-63
2023/07/24 07:20:08;;;;;;;8.20;7.40;;;;;;;;;;5078877;28;20497;-63
2023/07/24 07:22:35;;;;;;;7.70;6.10;;;;;;;;;;5079557;28;20480;-63
2023/07/24 07:25:01;;;;;;;7.17;6.47;;;;;;;;;;5078737;28;20510;-63
2023/07/24 07:27:29;;;;;;;8.93;5.57;;;;;;;;;;5079266;28;21045;-63
2023/07/24 07:29:55;;;;;;;7.10;5.07;;;;;;;;;;5078723;28;20506;-63
2023/07/24 07:32:21;;;;;;;6.57;5.93;;;;;;;;;;5078681;28;20517;-63
2023/07/24 07:34:48;;;;;;;6.60;5.90;;;;;;;;;;5078582;28;20539;-63
2023/07/24 07:37:14;;;;;;;6.90;6.20;;;;;;;;;;5079015;28;20507;-63
2023/07/24 07:39:41;;;;;;;8.63;6.20;;;;;;;;;;5074153;28;20483;-63
2023/07/24 07:42:07;;;;;;;6.20;5.60;;;;;;;;;;5075444;28;20979;-63
2023/07/24 07:44:35;;;;;;;7.70;5.63;;;;;;;;;;5079187;28;20929;-63
2023/07/24 07:47:01;;;;;;;10.10;5.70;;;;;;;;;;5078540;28;20455;-63
2023/07/24 07:49:28;;;;;;;8.13;6.30;;;;;;;;;;5078742;28;20467;-63
2023/07/24 07:51:54;;;;;;;6.50;5.27;;;;;;;;;;5076665;28;20492;-63
2023/07/24 07:54:21;;;;;;;7.83;6.30;;;;;;;;;;5077814;28;20539;-63
2023/07/24 07:56:47;;;;;;;11.57;6.43;;;;;;;;;;5078331;28;20476;-64
2023/07/24 07:59:14;;;;;;;8.53;6.07;;;;;;;;;;5078669;28;20472;-64
2023/07/24 08:01:42;;;;;;;7.07;6.30;;;;;;;;;;5077904;28;20457;-63
2023/07/24 08:04:08;;;;;;;6.93;6.30;;;;;;;;;;5078639;28;20475;-64
2023/07/24 08:06:34;;;;;;;6.80;6.10;;;;;;;;;;5077630;28;21032;-64
2023/07/24 08:09:01;;;;;;;7.60;6.47;;;;;;;;;;5078146;28;20482;-64
2023/07/24 08:11:27;;;;;;;7.70;6.60;;;;;;;;;;5064445;28;20456;-64
2023/07/24 08:13:54;;;;;;;7.10;6.40;;;;;;;;;;5078725;28;20482;-64
2023/07/24 08:16:20;;;;;;;7.83;6.57;;;;;;;;;;5077849;28;20535;-64
2023/07/24 08:18:49;;;;;;;10.50;6.80;;;;;;;;;;5078608;28;20842;-64
2023/07/24 08:21:16;;;;;;;8.90;6.27;;;;;;;;;;5077703;28;20452;-64
2023/07/24 08:23:43;;;;;;;6.33;5.80;;;;;;;;;;5077672;28;20880;-64
2023/07/24 08:26:10;;;;;;;7.83;6.53;;;;;;;;;;5078582;28;21043;-64
2023/07/24 08:28:36;;;;;;;10.93;6.80;;;;;;;;;;5078568;28;20451;-64
2023/07/24 08:31:02;;;;;;;7.47;6.77;;;;;;;;;;5080969;28;20443;-64
2023/07/24 08:33:29;;;;;;;9.33;6.83;;;;;;;;;;5082794;28;20459;-61
2023/07/24 08:36:04;;;;;;;8.13;6.80;;;;;;;;;;5081806;28;20495;-63
2023/07/24 08:38:30;;;;;;;13.40;5.93;;;;;;;;;;5081965;28;20774;-63
2023/07/24 08:41:03;;;;;;;7.50;6.30;;;;;;;;;;5082207;28;20491;-64
2023/07/24 08:43:30;;;;;;;10.60;6.20;;;;;;;;;;5082804;28;20436;-63
2023/07/24 08:45:58;;;;;;;9.30;6.17;;;;;;;;;;5081853;28;20530;-63
2023/07/24 08:48:24;;;;;;;5.70;5.10;;;;;;;;;;5082672;28;20838;-63
2023/07/24 08:50:52;;;;;;;7.30;6.60;;;;;;;;;;5081748;28;20485;-64
2023/07/24 08:53:22;;;;;;;6.10;5.50;;;;;;;;;;5081371;28;20448;-63
2023/07/24 08:55:49;;;;;;;6.40;5.80;;;;;;;;;;5082276;28;20451;-63
2023/07/24 08:58:16;;;;;;;6.40;5.80;;;;;;;;;;5073309;28;20451;-64
2023/07/24 09:00:42;;;;;;;6.53;5.37;;;;;;;;;;5081680;28;20568;-64
2023/07/24 09:03:09;;;;;;;5.97;5.37;;;;;;;;;;5081716;28;20509;-64
2023/07/24 09:05:36;;;;;;;7.93;5.60;;;;;;;;;;5080972;28;20456;-64
2023/07/24 09:08:02;;;;;;;6.60;5.73;;;;;;;;;;5081527;28;20451;-64
2023/07/24 09:10:30;;;;;;;8.77;5.30;;;;;;;;;;5081879;28;20493;-63
2023/07/24 09:12:57;;;;;;;6.83;6.23;;;;;;;;;;5081563;28;20469;-64
2023/07/24 09:15:23;;;;;;;7.93;7.07;;;;;;;;;;5080599;28;20455;-63
2023/07/24 09:17:50;;;;;;;6.70;6.07;;;;;;;;;;5082083;28;20457;-64
2023/07/24 09:20:17;;;;;;;6.40;5.90;;;;;;;;;;5073518;28;20509;-64
2023/07/24 09:22:48;;;;;;;6.93;5.63;;;;;;;;;;5080986;28;20451;-63
2023/07/24 09:25:15;;;;;;;6.50;5.90;;;;;;;;;;5075821;28;20459;-64
2023/07/24 09:27:43;;;;;;;7.50;6.77;;;;;;;;;;5082065;28;20448;-64
2023/07/24 09:30:12;;;;;;;9.20;7.17;;;;;;;;;;5080275;28;20452;-63
2023/07/24 09:32:39;;;;;;;7.83;7.00;;;;;;;;;;5081554;28;20447;-64
2023/07/24 09:35:06;;;;;;;8.07;7.20;;;;;;;;;;5080507;28;20521;-63
2023/07/24 09:37:35;;;;;;;8.00;7.20;;;;;;;;;;5080186;28;20843;-64
2023/07/24 09:40:04;;;;;;;8.80;7.90;;;;;;;;;;5081141;28;20500;-64
2023/07/24 09:42:31;;;;;;;8.00;7.40;;;;;;;;;;5081099;28;20486;-64
2023/07/24 09:44:59;;;;;;;7.77;6.93;;;;;;;;;;5080519;28;20443;-64
2023/07/24 09:47:26;;;;;;;9.60;8.70;;;;;;;;;;5081642;28;20468;-64
2023/07/24 09:49:53;;;;;;;8.90;8.00;;;;;;;;;;5080740;28;20452;-64
2023/07/24 09:52:20;;;;;;;10.10;9.20;;;;;;;;;;5080598;28;20812;-64
2023/07/24 09:54:55;;;;;;;9.47;8.60;;;;;;;;;;5080674;28;21095;-64
2023/07/24 09:57:21;;;;;;;8.93;8.07;;;;;;;;;;5080348;28;20443;-64
2023/07/24 09:59:49;;;;;;;8.63;7.83;;;;;;;;;;5080551;28;20566;-64
2023/07/24 10:02:18;;;;;;;6.90;6.30;;;;;;;;;;5080759;28;20474;-64
2023/07/24 10:04:45;;;;;;;6.77;6.13;;;;;;;;;;5080190;28;20516;-64
2023/07/24 10:07:11;;;;;;;6.93;5.37;;;;;;;;;;5079135;28;20935;-64
2023/07/24 10:09:38;;;;;;;5.53;5.07;;;;;;;;;;5080824;28;20451;-63
2023/07/24 10:12:05;;;;;;;7.20;4.80;;;;;;;;;;5080023;28;21070;-63
2023/07/24 10:14:32;;;;;;;4.10;3.80;;;;;;;;;;5080290;28;20517;-65
2023/07/24 10:16:58;;;;;;;4.23;3.20;;;;;;;;;;5080973;28;20466;-64
2023/07/24 10:19:35;;;;;;;4.57;4.17;;;;;;;;;;5080673;28;20531;-64
2023/07/24 10:22:03;;;;;;;2.90;2.70;;;;;;;;;;5081104;28;20898;-63
2023/07/24 10:24:30;;;;;;;3.10;2.80;;;;;;;;;;5081460;28;20517;-63
2023/07/24 10:26:57;;;;;;;3.90;2.93;;;;;;;;;;5081557;28;20471;-63
2023/07/24 10:29:24;;;;;;;4.37;3.40;;;;;;;;;;5080975;28;20448;-63
2023/07/24 10:31:53;;;;;;;5.53;3.67;;;;;;;;;;5080910;28;20471;-63
2023/07/24 10:34:19;;;;;;;3.93;3.13;;;;;;;;;;5081042;28;21668;-63
2023/07/24 10:36:47;;;;;;;4.63;3.10;;;;;;;;;;5079985;28;20562;-64
2023/07/24 10:39:14;;;;;;;5.30;3.30;;;;;;;;;;5081048;28;20498;-63
2023/07/24 10:41:40;;;;;;;3.07;2.60;;;;;;;;;;5080564;28;20631;-63
2023/07/24 10:44:07;;;;;;;3.23;2.93;;;;;;;;;;5080817;28;20448;-63
2023/07/24 10:46:37;;;;;;;3.27;2.97;;;;;;;;;;5080985;28;20851;-63
2023/07/24 10:49:04;;;;;;;2.67;2.47;;;;;;;;;;5080941;28;20503;-63
2023/07/24 10:51:32;;;;;;;3.70;3.10;;;;;;;;;;5080036;28;21002;-63
2023/07/24 10:54:00;;;;;;;3.70;3.07;;;;;;;;;;5080226;28;20454;-63
2023/07/24 10:56:26;;;;;;;4.10;2.87;;;;;;;;;;5080207;28;20979;-63
2023/07/24 10:58:53;;;;;;;3.70;3.03;;;;;;;;;;5080106;28;20444;-63
2023/07/24 11:01:20;;;;;;;5.73;3.37;;;;;;;;;;5080516;28;20519;-63
2023/07/24 11:03:46;;;;;;;2.93;2.63;;;;;;;;;;5080626;28;20515;-64
2023/07/24 11:06:14;;;;;;;3.70;2.97;;;;;;;;;;5078629;28;20877;-63
2023/07/24 11:08:41;;;;;;;4.57;3.30;;;;;;;;;;5079855;28;20456;-63
2023/07/24 11:11:09;;;;;;;3.53;2.97;;;;;;;;;;5080042;28;20483;-63
2023/07/24 11:13:35;;;;;;;3.57;3.27;;;;;;;;;;5079998;28;20539;-63
2023/07/24 11:16:05;;;;;;;3.87;3.20;;;;;;;;;;5080214;28;20452;-63
2023/07/24 11:18:32;;;;;;;4.47;3.13;;;;;;;;;;5075864;28;20792;-63
2023/07/24 11:20:58;;;;;;;4.17;3.37;;;;;;;;;;5078560;28;20538;-63
2023/07/24 11:23:25;;;;;;;3.80;3.50;;;;;;;;;;5079291;28;20467;-63
2023/07/24 11:25:52;;;;;;;3.37;3.07;;;;;;;;;;5077942;28;20444;-63
2023/07/24 11:28:20;;;;;;;3.30;3.00;;;;;;;;;;5079447;28;20448;-63
2023/07/24 11:30:47;;;;;;;3.27;2.97;;;;;;;;;;5079384;28;20448;-63
2023/07/24 11:33:14;;;;;;;3.70;3.27;;;;;;;;;;5077929;28;20451;-63
2023/07/24 11:35:41;;;;;;;4.23;3.83;;;;;;;;;;5078244;28;20459;-63
2023/07/24 11:38:09;;;;;;;3.90;3.60;;;;;;;;;;5078839;28;21024;-63
2023/07/24 11:40:39;;;;;;;3.77;3.47;;;;;;;;;;5077295;28;20506;-63
2023/07/24 11:43:06;;;;;;;4.47;4.07;;;;;;;;;;5079129;28;20447;-63
2023/07/24 11:45:41;;;;;;;5.03;4.60;;;;;;;;;;5079006;28;20449;-64
2023/07/24 11:48:10;;;;;;;7.10;5.30;;;;;;;;;;5077976;28;20443;-63
2023/07/24 11:50:42;;;;;;;5.90;5.40;;;;;;;;;;5078378;28;20483;-63
2023/07/24 11:53:19;;;;;;;6.73;6.10;;;;;;;;;;5078627;28;20452;-63
2023/07/24 11:55:45;;;;;;;7.73;7.13;;;;;;;;;;5072190;28;20506;-63
2023/07/24 11:58:15;;;;;;;7.07;6.47;;;;;;;;;;5077565;28;20529;-63
2023/07/24 12:00:43;;;;;;;6.33;5.83;;;;;;;;;;5077948;28;20641;-63
2023/07/24 12:03:09;;;;;;;5.83;5.40;;;;;;;;;;5071284;28;20460;-64
2023/07/24 12:05:38;;;;;;;4.93;4.37;;;;;;;;;;5075655;28;20463;-63
2023/07/24 12:08:05;;;;;;;5.00;4.60;;;;;;;;;;5078299;28;20478;-65
2023/07/24 12:10:31;;;;;;;5.73;5.20;;;;;;;;;;5075832;28;20479;-64
2023/07/24 12:12:59;;;;;;;5.60;5.20;;;;;;;;;;5078244;28;20484;-63
2023/07/24 12:15:26;;;;;;;6.43;5.90;;;;;;;;;;5078416;28;20456;-64
2023/07/24 12:17:54;;;;;;;6.37;5.97;;;;;;;;;;5076106;28;20455;-63
2023/07/24 12:20:21;;;;;;;6.37;5.87;;;;;;;;;;5077568;28;20575;-63
2023/07/24 12:22:47;;;;;;;6.70;6.20;;;;;;;;;;5078217;28;20491;-63
2023/07/24 12:25:15;;;;;;;5.90;5.50;;;;;;;;;;5077304;28;20531;-63
2023/07/24 12:27:42;;;;;;;7.20;6.60;;;;;;;;;;5078166;28;20447;-63
2023/07/24 12:30:08;;;;;;;7.70;7.00;;;;;;;;;;5078029;28;20472;-63
2023/07/24 12:32:35;;;;;;;7.20;6.60;;;;;;;;;;5076291;28;20452;-63
2023/07/24 12:35:03;;;;;;;7.80;7.20;;;;;;;;;;5075217;28;20464;-64
2023/07/24 12:37:29;;;;;;;7.40;6.90;;;;;;;;;;5077563;28;20742;-64
2023/07/24 12:39:56;;;;;;;8.43;7.70;;;;;;;;;;5076977;28;20459;-63
2023/07/24 12:42:23;;;;;;;9.13;7.60;;;;;;;;;;5077778;28;20464;-63
2023/07/24 12:44:49;;;;;;;8.30;7.60;;;;;;;;;;5077749;28;20443;-63
2023/07/24 12:47:16;;;;;;;7.70;7.10;;;;;;;;;;5076827;28;20483;-63
2023/07/24 12:49:42;;;;;;;7.87;7.27;;;;;;;;;;5077144;28;20454;-63
2023/07/24 12:52:10;;;;;;;9.43;8.63;;;;;;;;;;5077815;28;20486;-63
2023/07/24 12:54:37;;;;;;;8.70;7.90;;;;;;;;;;5076254;28;20493;-63
2023/07/24 12:57:04;;;;;;;8.97;8.03;;;;;;;;;;5077361;28;20443;-63
2023/07/24 12:59:30;;;;;;;9.73;8.70;;;;;;;;;;5078206;28;20474;-63
2023/07/24 13:01:56;;;;;;;11.03;10.03;;;;;;;;;;5075815;28;20550;-63
2023/07/24 13:04:23;;;;;;;10.80;9.90;;;;;;;;;;5077813;28;20458;-63
2023/07/24 13:06:50;;;;;;;11.47;10.37;;;;;;;;;;5076179;28;20962;-66
2023/07/24 13:09:18;;;;;;;12.07;10.80;;;;;;;;;;5076870;28;20444;-63
2023/07/24 13:11:47;;;;;;;10.97;9.97;;;;;;;;;;5077297;28;20444;-63
2023/07/24 13:14:14;;;;;;;12.40;11.20;;;;;;;;;;5077651;28;20454;-63
2023/07/24 13:16:40;;;;;;;11.27;10.37;;;;;;;;;;5078607;28;20468;-63
2023/07/24 13:19:07;;;;;;;11.23;9.97;;;;;;;;;;5080984;28;20448;-63
2023/07/24 13:21:33;;;;;;;9.60;8.70;;;;;;;;;;5080685;28;20488;-63
2023/07/24 13:24:00;;;;;;;9.47;8.57;;;;;;;;;;5079867;28;20451;-63
2023/07/24 13:26:27;;;;;;;8.20;7.43;;;;;;;;;;5081293;28;20447;-63
2023/07/24 13:28:54;;;;;;;7.43;6.73;;;;;;;;;;5080431;28;20515;-63
2023/07/24 13:31:21;;;;;;;8.40;6.40;;;;;;;;;;5080095;28;20458;-63
2023/07/24 13:33:48;;;;;;;6.97;6.27;;;;;;;;;;5080086;28;20845;-63
2023/07/24 13:36:15;;;;;;;6.50;5.90;;;;;;;;;;5079221;28;20496;-63
2023/07/24 13:38:41;;;;;;;7.20;6.40;;;;;;;;;;5079708;28;20512;-63
2023/07/24 13:41:08;;;;;;;8.47;7.57;;;;;;;;;;5080499;28;21046;-63
2023/07/24 13:43:35;;;;;;;8.03;7.23;;;;;;;;;;5081141;28;20463;-63
2023/07/24 13:46:03;;;;;;;7.13;6.47;;;;;;;;;;5079745;28;20980;-63
2023/07/24 13:48:29;;;;;;;6.70;5.67;;;;;;;;;;5080876;28;20444;-63
2023/07/24 13:50:56;;;;;;;7.00;5.33;;;;;;;;;;5080209;28;20452;-63
2023/07/24 13:53:24;;;;;;;6.13;5.47;;;;;;;;;;5079644;28;20455;-63
2023/07/24 13:55:51;;;;;;;5.57;5.07;;;;;;;;;;5080265;28;20459;-63
2023/07/24 13:58:17;;;;;;;4.90;4.50;;;;;;;;;;5079955;28;20450;-63
2023/07/24 14:00:45;;;;;;;5.77;5.27;;;;;;;;;;5079448;28;20484;-63
2023/07/24 14:03:12;;;;;;;4.73;4.33;;;;;;;;;;5080453;28;20448;-64
2023/07/24 14:05:38;;;;;;;4.20;3.80;;;;;;;;;;5078877;28;20470;-64
2023/07/24 14:08:05;;;;;;;3.50;3.20;;;;;;;;;;5079795;28;20443;-63
2023/07/24 14:10:32;;;;;;;3.70;3.33;;;;;;;;;;5080260;28;20495;-63
2023/07/24 14:12:58;;;;;;;3.23;2.93;;;;;;;;;;5080746;28;20444;-63
2023/07/24 14:15:25;;;;;;;3.30;3.00;;;;;;;;;;5079623;28;20722;-63
2023/07/24 14:17:52;;;;;;;3.50;3.20;;;;;;;;;;5079656;28;20816;-63
2023/07/24 14:20:19;;;;;;;3.33;2.90;;;;;;;;;;5080138;28;20482;-63
2023/07/24 14:22:45;;;;;;;3.53;2.60;;;;;;;;;;5078729;28;20499;-63
2023/07/24 14:25:12;;;;;;;4.10;3.10;;;;;;;;;;5080106;28;20475;-63
2023/07/24 14:27:38;;;;;;;4.40;3.00;;;;;;;;;;5079335;28;20531;-63
2023/07/24 14:30:05;;;;;;;4.97;2.80;;;;;;;;;;5077525;28;20448;-63
2023/07/24 14:32:32;;;;;;;3.57;3.17;;;;;;;;;;5079957;28;20571;-63
2023/07/24 14:34:59;;;;;;;4.43;2.93;;;;;;;;;;5079056;28;20494;-63
2023/07/24 14:37:26;;;;;;;3.70;2.93;;;;;;;;;;5078568;28;20560;-63
2023/07/24 14:39:52;;;;;;;2.23;2.03;;;;;;;;;;5079586;28;20523;-63